Mobile Site You Are Here >  >  >  > Tyler Horan 2014 Minor League Gamelogs & Splits


Tyler Horan

Tyler Roy Horan

Position: Outfielder
Bats: Left, Throws: Right
Height: 6' 2", Weight: 230 lb.

Born: December 2, 1990 in Middleboro, Massachusetts, US
School: Virginia Polytechnic Institute and State University (Blacksburg, VA)

Drafted by the San Francisco Giants in the 8th round of the 2013 MLB June Amateur Draft from Virginia Polytechnic Institute and State University (Blacksburg, VA).

Tyler Horan
/ Gamelogs & Splits
 Batting: 2014 / 2013

2014 Player Batting Gamelog

Rk Date Lev Tm   Opp PA AB R H 2B 3B HR RBI BB IBB SO HBP SH SF GDP SB CS Pos E
1 2014-04-03 A-SALL Augusta GreenJackets Charleston RiverDogs 4 4 0 0 0 0 0 0 0 0 3 0 0 0 0 0 0 RF 0
2 2014-04-04 A-SALL Augusta GreenJackets Charleston RiverDogs 4 2 1 1 0 0 0 0 2 0 1 0 0 0 0 1 0 RF 0
3 2014-04-05 A-SALL Augusta GreenJackets Charleston RiverDogs 4 4 1 2 1 0 0 1 0 0 1 0 0 0 0 0 0 RF 0
4 2014-04-06 A-SALL Augusta GreenJackets Charleston RiverDogs 4 4 0 2 1 0 0 1 0 0 1 0 0 0 0 0 0 RF 0
5 2014-04-08 A-SALL Augusta GreenJackets @ Savannah Sand Gnats 3 3 0 0 0 0 0 0 0 0 2 0 0 0 0 0 0 RF 0
6 2014-04-08 (2) A-SALL Augusta GreenJackets @ Savannah Sand Gnats 3 3 0 0 0 0 0 0 0 0 1 0 0 0 0 0 0 RF 0
7 2014-04-09 A-SALL Augusta GreenJackets @ Savannah Sand Gnats 5 4 1 0 0 0 0 1 1 0 2 0 0 0 0 0 0 RF 0
8 2014-04-12 A-SALL Augusta GreenJackets @ Charleston RiverDogs 4 4 1 2 0 0 0 0 0 0 0 0 0 0 0 0 0 RF 0
9 2014-04-13 A-SALL Augusta GreenJackets @ Charleston RiverDogs 4 4 0 4 1 0 0 0 0 0 0 0 0 0 0 0 0 RF 0
10 2014-04-14 A-SALL Augusta GreenJackets Savannah Sand Gnats 3 3 0 0 0 0 0 0 0 0 1 0 0 0 0 0 0 0
11 2014-04-16 A-SALL Augusta GreenJackets Savannah Sand Gnats 4 4 0 0 0 0 0 0 0 0 3 0 0 0 0 0 0 RF 0
12 2014-04-17 A-SALL Augusta GreenJackets @ Lexington Legends 4 4 1 2 0 0 1 2 0 0 0 0 0 0 0 0 0 RF 0
13 2014-04-18 A-SALL Augusta GreenJackets @ Lexington Legends 5 5 0 0 0 0 0 0 0 0 3 0 0 0 0 0 0 RF 0
14 2014-04-21 A-SALL Augusta GreenJackets Hagerstown Suns 4 3 1 2 1 0 0 0 1 0 0 0 0 0 1 1 0 RF 0
15 2014-04-22 A-SALL Augusta GreenJackets Hagerstown Suns 4 4 0 1 0 0 0 0 0 0 2 0 0 0 0 0 0 RF 0
16 2014-04-23 A-SALL Augusta GreenJackets Hagerstown Suns 6 3 0 1 1 0 0 1 2 1 1 1 0 0 0 0 0 RF 0
17 2014-04-24 A-SALL Augusta GreenJackets Asheville Tourists 4 4 1 2 0 0 0 1 0 0 0 0 0 0 0 0 0 RF 0
18 2014-04-25 A-SALL Augusta GreenJackets Asheville Tourists 4 4 1 2 1 0 0 0 0 0 1 0 0 0 0 0 0 RF 0
19 2014-04-26 A-SALL Augusta GreenJackets Asheville Tourists 4 4 1 1 0 0 0 0 0 0 1 0 0 0 0 0 0 0
20 2014-04-27 A-SALL Augusta GreenJackets Asheville Tourists 3 3 0 1 0 0 0 0 0 0 0 0 0 0 0 0 1 RF 0
21 2014-04-29 A-SALL Augusta GreenJackets @ Charleston RiverDogs 4 4 0 1 0 1 0 1 0 0 1 0 0 0 0 0 0 RF 0
22 2014-04-30 A-SALL Augusta GreenJackets @ Charleston RiverDogs 5 4 1 2 2 0 0 1 1 0 2 0 0 0 0 0 0 RF 0
23 2014-05-01 A-SALL Augusta GreenJackets @ Charleston RiverDogs 3 2 0 1 1 0 0 0 1 0 0 0 0 0 0 0 0 RF 0
24 2014-05-02 A-SALL Augusta GreenJackets Greenville Drive 4 4 1 1 0 0 0 1 0 0 0 0 0 0 0 0 0 RF 0
25 2014-05-03 A-SALL Augusta GreenJackets Greenville Drive 4 3 1 1 0 0 1 2 1 0 0 0 0 0 0 0 0 RF 0
26 2014-05-04 A-SALL Augusta GreenJackets Greenville Drive 4 3 0 1 1 0 0 0 0 0 1 1 0 0 0 0 0 RF 0
27 2014-05-05 A-SALL Augusta GreenJackets Greenville Drive 4 4 0 2 1 0 0 0 0 0 0 0 0 0 0 0 0 RF 0
28 2014-05-07 A-SALL Augusta GreenJackets @ Delmarva Shorebirds 4 4 0 2 1 0 0 0 0 0 0 0 0 0 0 0 0 RF 0
29 2014-05-08 A-SALL Augusta GreenJackets @ Delmarva Shorebirds 3 3 0 0 0 0 0 0 0 0 2 0 0 0 0 0 0 RF 0
30 2014-05-09 A-SALL Augusta GreenJackets @ Delmarva Shorebirds 4 4 0 1 0 1 0 2 0 0 2 0 0 0 0 0 0 RF 0
31 2014-05-10 A-SALL Augusta GreenJackets @ Hickory Crawdads 4 4 0 1 0 0 0 0 0 0 2 0 0 0 0 0 0 RF 0
32 2014-05-11 A-SALL Augusta GreenJackets @ Hickory Crawdads 4 4 1 1 0 0 1 2 0 0 1 0 0 0 0 0 0 RF 1
33 2014-05-12 A-SALL Augusta GreenJackets @ Hickory Crawdads 4 4 1 2 1 1 0 0 0 0 0 0 0 0 0 0 0 RF 1
34 2014-05-13 A-SALL Augusta GreenJackets @ Hickory Crawdads 5 4 1 2 2 0 0 2 1 0 0 0 0 0 0 0 0 RF 0
35 2014-05-14 A-SALL Augusta GreenJackets West Virginia Power 4 4 1 0 0 0 0 0 0 0 0 0 0 0 0 0 0 RF 0
36 2014-05-15 A-SALL Augusta GreenJackets West Virginia Power 4 4 0 0 0 0 0 0 0 0 2 0 0 0 0 0 0 RF 0
37 2014-05-16 A-SALL Augusta GreenJackets West Virginia Power 4 4 0 0 0 0 0 0 0 0 2 0 0 0 0 0 0 RF 0
38 2014-05-17 A-SALL Augusta GreenJackets Greensboro Grasshoppers 5 5 0 0 0 0 0 0 0 0 3 0 0 0 0 0 0 RF 0
39 2014-05-18 A-SALL Augusta GreenJackets Greensboro Grasshoppers 3 3 0 1 0 0 0 0 0 0 1 0 0 0 0 0 1 RF 0
40 2014-05-19 A-SALL Augusta GreenJackets Greensboro Grasshoppers 4 3 0 0 0 0 0 0 1 0 3 0 0 0 0 0 0 RF 0
41 2014-05-20 A-SALL Augusta GreenJackets Greensboro Grasshoppers 5 5 1 1 0 1 0 1 0 0 0 0 0 0 0 0 0 RF 0
42 2014-05-22 A-SALL Augusta GreenJackets @ Greenville Drive 4 4 0 1 0 0 0 0 0 0 3 0 0 0 0 1 0 RF 0
43 2014-05-23 A-SALL Augusta GreenJackets @ Greenville Drive 4 3 0 0 0 0 0 0 1 0 3 0 0 0 0 0 0 RF 0
44 2014-05-24 A-SALL Augusta GreenJackets @ Greenville Drive 5 4 2 2 0 1 1 3 0 0 0 1 0 0 0 0 0 RF 0
45 2014-05-25 A-SALL Augusta GreenJackets @ Greenville Drive 5 5 3 3 1 0 1 1 0 0 1 0 0 0 0 1 0 RF 0
46 2014-05-26 A-SALL Augusta GreenJackets Savannah Sand Gnats 3 3 0 1 0 0 0 0 0 0 0 0 0 0 0 0 0 RF 0
47 2014-05-29 A-SALL Augusta GreenJackets @ Lexington Legends 4 3 1 0 0 0 0 0 1 0 0 0 0 0 0 0 0 RF 0
48 2014-05-30 A-SALL Augusta GreenJackets @ Lexington Legends 5 3 0 0 0 0 0 0 2 0 1 0 0 0 0 0 0 RF 0
49 2014-05-31 A-SALL Augusta GreenJackets @ Lexington Legends 5 4 1 0 0 0 0 0 1 0 1 0 0 0 0 0 0 RF 0
50 2014-06-02 A-SALL Augusta GreenJackets Rome Braves 4 4 1 2 0 0 0 1 0 0 2 0 0 0 0 0 0 RF 0
51 2014-06-03 A-SALL Augusta GreenJackets Rome Braves 4 4 0 0 0 0 0 0 0 0 4 0 0 0 0 0 0 RF 0
52 2014-06-05 A-SALL Augusta GreenJackets Lexington Legends 5 4 2 1 0 0 0 1 1 0 0 0 0 0 0 0 0 RF 0
53 2014-06-06 A-SALL Augusta GreenJackets Lexington Legends 5 4 2 0 0 0 0 0 1 0 2 0 0 0 0 0 0 RF 0
54 2014-06-07 A-SALL Augusta GreenJackets Lexington Legends 5 5 1 1 0 0 0 0 0 0 2 0 0 0 0 0 0 RF 0
55 2014-06-08 A-SALL Augusta GreenJackets Lexington Legends 3 3 0 0 0 0 0 0 0 0 1 0 0 0 0 0 0 RF 0
56 2014-06-10 A-SALL Augusta GreenJackets @ Rome Braves 4 4 0 1 0 0 0 0 0 0 0 0 0 0 0 0 0 RF 0
57 2014-06-11 A-SALL Augusta GreenJackets @ Rome Braves 7 5 0 0 0 0 0 0 2 0 0 0 0 0 0 0 0 RF 0
58 2014-06-12 A-SALL Augusta GreenJackets @ Savannah Sand Gnats 3 3 1 1 0 0 1 1 0 0 1 0 0 0 0 0 0 RF 0
59 2014-06-12 (2) A-SALL Augusta GreenJackets @ Savannah Sand Gnats 3 3 0 1 0 0 0 0 0 0 1 0 0 0 0 0 0 RF 0
60 2014-06-13 A-SALL Augusta GreenJackets @ Savannah Sand Gnats 5 4 2 2 0 0 1 1 1 0 1 0 0 0 0 0 0 RF 0
61 2014-06-15 A-SALL Augusta GreenJackets @ Savannah Sand Gnats 4 3 0 1 0 0 0 2 0 0 0 1 0 0 0 1 0 RF 0
62 2014-06-19 A-SALL Augusta GreenJackets Asheville Tourists 4 3 0 0 0 0 0 0 1 0 2 0 0 0 0 0 0 RF 0
63 2014-06-20 A-SALL Augusta GreenJackets Asheville Tourists 4 3 0 0 0 0 0 1 0 0 2 0 0 1 0 0 0 RF 0
64 2014-06-21 A-SALL Augusta GreenJackets Asheville Tourists 4 3 0 1 0 0 0 0 1 0 1 0 0 0 0 0 0 RF 0
65 2014-06-22 A-SALL Augusta GreenJackets Asheville Tourists 4 4 0 2 0 0 0 0 0 0 0 0 0 0 0 0 0 RF 0
66 2014-06-23 A-SALL Augusta GreenJackets Rome Braves 4 4 0 1 1 0 0 0 0 0 1 0 0 0 0 0 0 RF 0
67 2014-06-24 A-SALL Augusta GreenJackets Rome Braves 4 2 0 0 0 0 0 1 1 0 0 0 0 1 0 1 1 RF 0
68 2014-06-25 A-SALL Augusta GreenJackets Rome Braves 3 3 0 0 0 0 0 0 0 0 2 0 0 0 0 0 0 RF 0
69 2014-06-26 A-SALL Augusta GreenJackets Rome Braves 4 3 1 3 0 0 1 5 1 0 0 0 0 0 0 0 0 RF 0
70 2014-06-27 A-SALL Augusta GreenJackets @ Lexington Legends 4 4 0 1 0 0 0 0 0 0 1 0 0 0 0 0 0 RF 0
71 2014-06-28 A-SALL Augusta GreenJackets @ Lexington Legends 5 4 3 2 0 0 1 1 1 0 0 0 0 0 0 0 0 RF 0
72 2014-06-29 A-SALL Augusta GreenJackets @ Lexington Legends 4 4 0 1 0 0 0 0 0 0 0 0 0 0 0 0 0 RF 0
73 2014-06-30 A-SALL Augusta GreenJackets @ Lexington Legends 4 4 0 0 0 0 0 0 0 0 2 0 0 0 0 0 0 RF 0
74 2014-07-01 A-SALL Augusta GreenJackets @ Rome Braves 5 3 1 0 0 0 0 0 0 0 0 2 0 0 0 0 1 CF,RF 0
75 2014-07-02 A-SALL Augusta GreenJackets @ Rome Braves 4 4 0 2 1 0 0 1 0 0 0 0 0 0 0 0 0 RF 0
76 2014-07-03 A-SALL Augusta GreenJackets @ Rome Braves 4 4 0 0 0 0 0 0 0 0 1 0 0 0 0 0 0 CF,RF 0
77 2014-07-04 A-SALL Augusta GreenJackets Greenville Drive 5 4 3 4 1 0 1 4 1 0 0 0 0 0 0 0 0 RF 0
78 2014-07-05 A-SALL Augusta GreenJackets Greenville Drive 4 4 2 2 0 0 1 1 0 0 1 0 0 0 0 0 0 RF 0
79 2014-07-06 A-SALL Augusta GreenJackets Greenville Drive 5 5 1 1 0 0 0 0 0 0 2 0 0 0 0 0 0 CF 0
80 2014-07-07 A-SALL Augusta GreenJackets @ Savannah Sand Gnats 4 4 0 3 0 0 0 1 0 0 0 0 0 0 0 1 0 RF 0
81 2014-07-08 A-SALL Augusta GreenJackets @ Savannah Sand Gnats 4 4 1 1 1 0 0 0 0 0 0 0 0 0 0 0 0 CF,RF 0
82 2014-07-09 A-SALL Augusta GreenJackets @ Savannah Sand Gnats 5 5 1 1 0 0 1 1 0 0 1 0 0 0 1 0 0 RF 0
83 2014-07-10 A-SALL Augusta GreenJackets @ Greenville Drive 5 4 1 1 0 0 0 0 1 0 1 0 0 0 0 0 0 RF 0
84 2014-07-11 A-SALL Augusta GreenJackets @ Greenville Drive 4 3 0 0 0 0 0 0 1 0 0 0 0 0 1 0 0 CF,RF 0
85 2014-07-12 A-SALL Augusta GreenJackets @ Greenville Drive 4 4 0 1 0 0 0 0 0 0 0 0 0 0 0 0 0 RF 1
86 2014-07-13 A-SALL Augusta GreenJackets @ Greenville Drive 1 1 0 0 0 0 0 0 0 0 0 0 0 0 1 0 0 0
87 2014-07-15 A-SALL Augusta GreenJackets Kannapolis Intimidators 6 5 1 0 0 0 0 0 1 0 2 0 0 0 0 0 0 CF,RF 0
88 2014-07-16 A-SALL Augusta GreenJackets Kannapolis Intimidators 4 4 0 0 0 0 0 0 0 0 3 0 0 0 0 0 0 RF 1
89 2014-07-17 A-SALL Augusta GreenJackets Kannapolis Intimidators 4 3 0 1 0 0 0 0 1 0 1 0 0 0 0 0 0 RF 0
90 2014-07-18 A-SALL Augusta GreenJackets @ Charleston RiverDogs 4 3 0 0 0 0 0 0 1 0 0 0 0 0 0 0 0 RF 0
91 2014-07-19 A-SALL Augusta GreenJackets @ Charleston RiverDogs 5 3 0 1 0 0 0 0 2 0 0 0 0 0 0 0 0 RF 0
92 2014-07-20 A-SALL Augusta GreenJackets @ Charleston RiverDogs 6 5 3 2 0 0 1 3 1 0 0 0 0 0 0 1 0 CF 0
93 2014-07-21 A-SALL Augusta GreenJackets @ Charleston RiverDogs 4 4 1 3 1 0 0 2 0 0 0 0 0 0 0 0 0 RF 0
94 2014-07-23 A-SALL Augusta GreenJackets Savannah Sand Gnats 4 4 0 0 0 0 0 0 0 0 0 0 0 0 0 0 0 RF 0
95 2014-07-24 A-SALL Augusta GreenJackets Savannah Sand Gnats 4 4 1 2 1 0 1 1 0 0 1 0 0 0 0 0 0 RF 0
96 2014-07-25 A-SALL Augusta GreenJackets Savannah Sand Gnats 4 4 0 0 0 0 0 0 0 0 1 0 0 0 0 0 0 0
97 2014-07-26 A-SALL Augusta GreenJackets Greensboro Grasshoppers 5 4 2 2 0 0 0 0 1 1 1 0 0 0 0 1 0 RF 0
98 2014-07-27 A-SALL Augusta GreenJackets Greensboro Grasshoppers 4 4 1 1 0 0 1 1 0 0 1 0 0 0 0 0 0 CF,RF 0
99 2014-07-28 A-SALL Augusta GreenJackets Greensboro Grasshoppers 4 3 1 0 0 0 0 0 1 0 2 0 0 0 0 0 0 RF 0
100 2014-07-31 A-SALL Augusta GreenJackets @ Kannapolis Intimidators 1 1 0 1 0 0 0 1 0 0 0 0 0 0 0 0 0 0
Player Moved from A-SALL to A+-CALL
101 2014-08-01 A+-CALL San Jose Giants Stockton Ports 4 2 1 2 0 0 0 0 2 0 0 0 0 0 0 1 0 LF 0
102 2014-08-02 A+-CALL San Jose Giants Stockton Ports 5 3 1 1 0 0 1 1 1 0 1 1 0 0 0 1 0 LF 0
103 2014-08-03 A+-CALL San Jose Giants Stockton Ports 4 4 0 1 0 0 0 0 0 0 2 0 0 0 0 0 0 LF 0
104 2014-08-05 A+-CALL San Jose Giants @ Bakersfield Blaze 4 3 1 1 0 0 1 2 1 0 0 0 0 0 0 0 0 0
105 2014-08-06 A+-CALL San Jose Giants @ Bakersfield Blaze 4 2 0 1 0 0 0 0 2 0 0 0 0 0 0 0 1 RF 0
106 2014-08-06 (2) A+-CALL San Jose Giants @ Bakersfield Blaze 4 3 0 0 0 0 0 0 1 1 2 0 0 0 0 0 0 LF 0
107 2014-08-07 A+-CALL San Jose Giants Lancaster JetHawks 4 4 0 0 0 0 0 0 0 0 4 0 0 0 0 0 0 LF 1
108 2014-08-08 A+-CALL San Jose Giants Lancaster JetHawks 4 4 0 1 0 0 0 1 0 0 1 0 0 0 0 0 0 0
109 2014-08-10 A+-CALL San Jose Giants Lancaster JetHawks 4 4 1 1 0 0 1 1 0 0 1 0 0 0 0 0 0 LF 0
110 2014-08-12 A+-CALL San Jose Giants @ Rancho Cucamonga Quakes 5 5 0 1 0 0 0 1 0 0 0 0 0 0 0 0 0 LF 1
111 2014-08-14 A+-CALL San Jose Giants @ Rancho Cucamonga Quakes 6 6 1 1 0 0 1 1 0 0 4 0 0 0 0 0 0 RF,LF 0
112 2014-08-15 A+-CALL San Jose Giants @ Stockton Ports 5 5 1 3 1 0 1 2 0 0 2 0 0 0 0 0 0 LF 0
113 2014-08-16 A+-CALL San Jose Giants @ Stockton Ports 5 5 1 3 2 0 0 2 0 0 1 0 0 0 0 0 0 RF 0
114 2014-08-17 A+-CALL San Jose Giants @ Stockton Ports 5 4 1 1 0 0 1 3 1 0 0 0 0 0 0 1 0 LF 0
115 2014-08-18 A+-CALL San Jose Giants @ Stockton Ports 4 4 0 1 0 0 0 1 0 0 2 0 0 0 0 1 0 0
116 2014-08-19 A+-CALL San Jose Giants Modesto Nuts 4 4 1 1 0 0 1 2 0 0 2 0 0 0 0 0 0 LF 0
117 2014-08-20 A+-CALL San Jose Giants Modesto Nuts 5 4 0 1 0 0 0 1 1 0 3 0 0 0 0 0 1 0
118 2014-08-21 A+-CALL San Jose Giants Modesto Nuts 3 3 0 0 0 0 0 0 0 0 1 0 0 0 0 0 0 RF 0
119 2014-08-22 A+-CALL San Jose Giants Visalia Rawhide 3 3 0 1 0 0 0 0 0 0 0 0 0 0 1 1 0 0
120 2014-08-24 A+-CALL San Jose Giants Visalia Rawhide 4 4 0 0 0 0 0 0 0 0 1 0 0 0 0 0 0 LF 0
121 2014-08-26 A+-CALL San Jose Giants @ Lake Elsinore Storm 4 4 1 2 0 1 0 1 0 0 0 0 0 0 0 1 0 RF 0
122 2014-08-27 A+-CALL San Jose Giants @ Lake Elsinore Storm 5 5 2 1 1 0 0 1 0 0 1 0 0 0 0 0 0 0
123 2014-08-28 A+-CALL San Jose Giants @ Lake Elsinore Storm 4 4 0 2 0 0 0 0 0 0 0 0 0 0 0 0 1 LF 0
124 2014-08-29 A+-CALL San Jose Giants @ High Desert Mavericks 5 4 2 3 0 0 1 3 0 0 0 0 0 1 0 0 0 LF 0
125 2014-08-30 A+-CALL San Jose Giants @ High Desert Mavericks 4 4 0 1 0 0 0 2 0 0 0 0 0 0 0 0 1 RF 0
126 2014-08-31 A+-CALL San Jose Giants @ High Desert Mavericks 4 4 2 2 1 0 1 1 0 0 1 0 0 0 0 0 0 LF 0
127 2014-09-01 A+-CALL San Jose Giants @ High Desert Mavericks 5 5 1 2 0 0 1 1 0 0 2 0 0 0 0 0 0 LF 0

2014 Player Batting Splits

Split G PA AB R H 2B 3B HR RBI SB CS BB SO BA OBP SLG OPS TB GDP HBP SH SF IBB
Total 127 530 474 74 134 27 6 25 80 15 8 46 128 .283 .353 .523 .876 248 5 7 0 3 3
Last 7 days 1 5 5 1 2 0 0 1 1 0 0 0 2 .400 .400 1.000 1.400 5 0 0 0 0 0
Last 28 days 10 41 40 8 14 2 1 3 9 2 2 0 6 .350 .341 .675 1.016 27 1 0 0 1 0
Last 90 days 65 274 244 41 74 11 1 18 51 10 6 24 58 .303 .369 .578 .946 141 4 3 0 3 2
Home 62 254 227 33 56 10 1 9 30 7 4 22 77 .247 .319 .419 .737 95 2 3 0 2 2
Away 65 276 247 41 78 17 5 16 50 8 4 24 51 .316 .384 .619 1.003 153 3 4 0 1 1
vs RHP as LHB 123 402 359 110 24 4 20 67 37 92 .306 .373 .563 .936 202 3 3 0 3 3
vs LHP as LHB 58 128 115 24 3 2 5 13 9 36 .209 .289 .400 .689 46 2 4 0 0 0
April 22 89 81 10 26 8 1 1 9 2 1 7 26 .321 .382 .481 .864 39 1 1 0 0 1
May 27 111 100 14 24 8 4 4 14 2 1 9 28 .240 .315 .520 .835 52 0 2 0 0 0
June 24 100 87 13 21 1 0 4 14 2 1 10 25 .241 .320 .391 .711 34 0 1 0 2 0
July 27 113 100 20 29 5 0 6 16 3 1 11 18 .290 .372 .520 .892 52 3 2 0 0 1
August 26 112 101 16 32 5 1 9 26 6 4 9 29 .317 .375 .653 1.028 66 1 1 0 1 1
September 1 5 5 1 2 0 0 1 1 0 0 0 2 .400 .400 1.000 1.400 5 0 0 0 0 0
2 outs, RISP 89 131 121 33 9 3 5 33 9 32 .273 .328 .521 .849 63 0 1 0 0 1
vs. Younger Pitchers 117 407 365 106 22 4 21 65 36 93 .290 .359 .545 .904 199 3 4 0 2 2
vs. Older Pitchers 60 123 109 28 5 2 4 15 10 35 .257 .333 .450 .783 49 2 3 0 1 1
Please note that splits include both major and minor league stats. We have decided that the splits across all levels is more useful than just minor league stats.

About the Minor League Data

Performance data on minor and international leagues is licensed from and provided by the SABR Minor Leagues Database, a community project sponsored by the Minor Leagues Committee of the Society for American Baseball Research.

The database is under active development. Many statistics are incomplete due to ongoing research and/or limitations in published sources. To learn more about these limitations, or to find out how to contribute, click here.

Minor league Total Zone (Rctch&Rtz, 2005-2009) data provided by Baseballprojection.com and Minorleaguesplits.com.